createdAt,value
2019-05-15T00:01:53.545Z,3.00
2019-05-15T00:04:22.616Z,2.40
2019-05-15T00:06:51.835Z,2.50
2019-05-15T00:09:20.949Z,2.73
2019-05-15T00:11:50.032Z,2.27
2019-05-15T00:14:19.167Z,2.60
2019-05-15T00:16:48.360Z,2.40
2019-05-15T00:19:18.806Z,2.30
2019-05-15T00:21:48.994Z,2.70
2019-05-15T00:24:18.287Z,2.60
2019-05-15T00:26:48.107Z,2.60
2019-05-15T00:29:19.743Z,3.30
2019-05-15T00:31:48.558Z,2.53
2019-05-15T00:34:18.323Z,2.80
2019-05-15T00:36:48.905Z,2.60
2019-05-15T00:39:18.977Z,2.90
2019-05-15T00:41:54.031Z,2.70
2019-05-15T00:44:18.950Z,2.73
2019-05-15T00:46:48.761Z,2.60
2019-05-15T00:49:18.939Z,2.60
2019-05-15T00:52:11.755Z,3.07
2019-05-15T00:54:38.861Z,2.90
2019-05-15T00:57:10.753Z,2.70
2019-05-15T00:59:39.790Z,2.30
2019-05-15T01:02:08.900Z,2.77
2019-05-15T01:04:58.572Z,3.20
2019-05-15T01:07:28.198Z,2.37
2019-05-15T01:09:57.962Z,2.70
2019-05-15T01:12:29.043Z,3.13
2019-05-15T01:14:58.323Z,3.23
2019-05-15T01:17:49.042Z,2.90
2019-05-15T01:20:18.952Z,2.70
2019-05-15T01:22:48.536Z,2.70
2019-05-15T01:25:18.640Z,3.10
2019-05-15T01:27:48.960Z,3.57
2019-05-15T01:30:18.238Z,2.67
2019-05-15T01:32:48.582Z,2.93
2019-05-15T01:35:18.062Z,2.60
2019-05-15T01:37:48.329Z,3.13
2019-05-15T01:40:18.208Z,3.07
2019-05-15T01:42:47.378Z,3.50
2019-05-15T01:45:16.439Z,3.10
2019-05-15T01:47:47.879Z,3.20
2019-05-15T01:50:18.415Z,3.47
2019-05-15T01:52:47.919Z,3.60
2019-05-15T01:55:18.194Z,3.10
2019-05-15T01:57:48.803Z,3.10
2019-05-15T02:00:18.828Z,3.47
2019-05-15T02:02:48.501Z,2.47
2019-05-15T02:05:18.799Z,3.77
2019-05-15T02:07:48.602Z,2.90
2019-05-15T02:10:18.631Z,3.37
2019-05-15T02:12:48.163Z,3.47
2019-05-15T02:15:19.039Z,3.30
2019-05-15T02:17:48.210Z,3.50
2019-05-15T02:20:18.725Z,3.50
2019-05-15T02:22:48.507Z,3.40
2019-05-15T02:25:18.535Z,3.27
2019-05-15T02:27:48.008Z,3.57
2019-05-15T02:30:27.909Z,3.53
2019-05-15T02:32:50.114Z,3.53
2019-05-15T02:35:18.603Z,3.00
2019-05-15T02:37:48.942Z,3.37
2019-05-15T02:40:19.012Z,3.50
2019-05-15T02:42:49.282Z,3.53
2019-05-15T02:45:41.739Z,3.27
2019-05-15T02:48:09.424Z,2.50
2019-05-15T02:50:39.199Z,3.00
2019-05-15T02:53:10.911Z,3.10
2019-05-15T02:55:40.616Z,2.80
2019-05-15T02:58:10.584Z,3.53
2019-05-15T03:00:47.296Z,3.27
2019-05-15T03:03:10.721Z,3.03
2019-05-15T03:05:40.963Z,3.03
2019-05-15T03:08:10.228Z,3.10
2019-05-15T03:10:40.678Z,3.47
2019-05-15T03:13:10.276Z,3.13
2019-05-15T03:15:40.493Z,3.47
2019-05-15T03:18:10.199Z,2.90
2019-05-15T03:20:39.797Z,3.07
2019-05-15T03:23:09.964Z,3.00
2019-05-15T03:25:40.565Z,3.43
2019-05-15T03:28:12.842Z,3.10
2019-05-15T03:31:13.426Z,3.30
2019-05-15T03:33:25.014Z,3.30
2019-05-15T03:35:44.614Z,3.07
2019-05-15T03:38:13.991Z,3.20
2019-05-15T03:40:43.058Z,2.80
2019-05-15T03:43:12.076Z,3.50
2019-05-15T03:45:41.133Z,3.30
2019-05-15T03:48:10.210Z,3.30
2019-05-15T03:50:40.544Z,3.50
2019-05-15T03:53:10.769Z,4.00
2019-05-15T03:55:40.778Z,3.13
2019-05-15T03:58:10.420Z,3.07
2019-05-15T04:00:40.061Z,3.90
2019-05-15T04:03:11.017Z,3.27
2019-05-15T04:05:39.922Z,2.97
2019-05-15T04:08:11.080Z,3.17
2019-05-15T04:10:40.312Z,3.33
2019-05-15T04:13:09.932Z,3.87
2019-05-15T04:15:39.985Z,2.80
2019-05-15T04:18:13.018Z,4.20
2019-05-15T04:21:01.369Z,3.60
2019-05-15T04:23:30.506Z,3.60
2019-05-15T04:25:59.581Z,3.30
2019-05-15T04:28:29.454Z,3.30
2019-05-15T04:30:59.635Z,3.13
2019-05-15T04:33:29.573Z,2.90
2019-05-15T04:35:59.131Z,3.10
2019-05-15T04:38:29.321Z,3.20
2019-05-15T04:40:59.106Z,3.53
2019-05-15T04:43:30.194Z,3.43
2019-05-15T04:46:03.084Z,3.43
2019-05-15T04:48:30.079Z,3.60
2019-05-15T04:50:59.126Z,3.13
2019-05-15T04:53:32.727Z,3.33
2019-05-15T04:55:59.729Z,3.47
2019-05-15T04:58:29.844Z,3.10
2019-05-15T05:00:59.864Z,3.63
2019-05-15T05:03:29.627Z,3.33
2019-05-15T05:05:59.322Z,3.13
2019-05-15T05:08:29.156Z,3.57
2019-05-15T05:10:59.233Z,3.53
2019-05-15T05:13:28.910Z,2.73
2019-05-15T05:15:58.765Z,3.27
2019-05-15T05:18:29.789Z,3.40
2019-05-15T05:20:58.722Z,3.43
2019-05-15T05:23:28.391Z,3.40
2019-05-15T05:25:58.134Z,3.40
2019-05-15T05:28:28.904Z,3.63
2019-05-15T05:30:58.752Z,3.37
2019-05-15T05:33:28.680Z,3.77
2019-05-15T05:35:58.427Z,3.67
2019-05-15T05:38:28.147Z,3.53
2019-05-15T05:40:58.652Z,3.63
2019-05-15T05:43:29.979Z,3.30
2019-05-15T05:46:03.946Z,3.33
2019-05-15T05:48:34.456Z,3.47
2019-05-15T05:51:03.495Z,3.50
2019-05-15T05:53:32.583Z,3.23
2019-05-15T05:56:01.652Z,3.80
2019-05-15T05:58:30.668Z,3.60
2019-05-15T06:00:59.759Z,3.30
2019-05-15T06:03:28.805Z,3.30
2019-05-15T06:05:59.092Z,2.80
2019-05-15T06:08:28.412Z,3.50
2019-05-15T06:10:58.483Z,2.90
2019-05-15T06:13:29.148Z,2.70
2019-05-15T06:15:59.064Z,2.80
2019-05-15T06:18:28.362Z,2.90
2019-05-15T06:20:58.620Z,2.80
2019-05-15T06:23:33.605Z,2.60
2019-05-15T06:25:59.371Z,2.70
2019-05-15T06:28:32.087Z,2.93
2019-05-15T06:31:08.731Z,2.60
2019-05-15T06:33:38.582Z,2.50
2019-05-15T06:36:10.750Z,2.73
2019-05-15T06:38:41.005Z,2.20
2019-05-15T06:41:10.045Z,2.93
2019-05-15T06:43:39.237Z,2.97
2019-05-15T06:46:09.255Z,2.83
2019-05-15T06:48:38.382Z,2.10
2019-05-15T06:51:08.887Z,2.80
2019-05-15T06:53:38.593Z,2.83
2019-05-15T06:56:08.065Z,2.97
2019-05-15T06:58:38.570Z,2.23
2019-05-15T07:01:08.749Z,2.20
2019-05-15T07:03:39.379Z,2.87
2019-05-15T07:06:09.646Z,2.40
2019-05-15T07:08:38.915Z,2.53
2019-05-15T07:11:08.735Z,2.40
2019-05-15T07:13:38.367Z,2.70
2019-05-15T07:16:08.185Z,2.33
2019-05-15T07:18:38.982Z,2.60
2019-05-15T07:21:10.671Z,2.83
2019-05-15T07:23:39.797Z,2.47
2019-05-15T07:26:09.464Z,2.50
2019-05-15T07:28:40.007Z,2.73
2019-05-15T07:31:11.601Z,2.10
2019-05-15T07:33:43.635Z,1.83
2019-05-15T07:36:13.461Z,1.77
2019-05-15T07:38:43.803Z,2.37
2019-05-15T07:41:12.820Z,1.60
2019-05-15T07:43:41.818Z,1.80
2019-05-15T07:46:10.846Z,1.97
2019-05-15T07:48:39.843Z,1.70
2019-05-15T07:51:11.619Z,1.83
2019-05-15T07:53:39.668Z,1.73
2019-05-15T07:56:11.989Z,1.57
2019-05-15T07:58:39.467Z,1.57
2019-05-15T08:01:09.922Z,1.80
2019-05-15T08:03:55.047Z,1.30
2019-05-15T08:06:11.054Z,1.60
2019-05-15T08:08:40.485Z,1.40
2019-05-15T08:11:20.407Z,1.73
2019-05-15T08:13:40.435Z,1.40
2019-05-15T08:16:09.577Z,1.40
2019-05-15T08:18:40.218Z,1.67
2019-05-15T08:21:09.343Z,1.10
2019-05-15T08:23:39.087Z,1.40
2019-05-15T08:26:08.913Z,1.57
2019-05-15T08:28:38.385Z,1.43
2019-05-15T08:31:10.081Z,1.43
2019-05-15T08:33:38.949Z,1.53
2019-05-15T08:36:08.637Z,1.13
2019-05-15T08:38:38.348Z,1.33
2019-05-15T08:41:11.166Z,1.27
2019-05-15T08:43:38.458Z,1.30
2019-05-15T08:46:08.260Z,1.20
2019-05-15T08:48:38.343Z,1.30
2019-05-15T08:51:08.691Z,1.30
2019-05-15T08:53:38.177Z,1.30
2019-05-15T08:56:08.558Z,1.00
2019-05-15T08:58:38.274Z,1.10
2019-05-15T09:01:09.891Z,1.40
2019-05-15T09:03:38.266Z,1.20
2019-05-15T09:06:09.138Z,1.30
2019-05-15T09:08:39.469Z,1.20
2019-05-15T09:11:09.331Z,1.32
2019-05-15T09:13:43.617Z,1.60
2019-05-15T09:16:09.453Z,1.50
2019-05-15T09:18:39.120Z,1.90
2019-05-15T09:21:10.150Z,1.67
2019-05-15T09:23:39.159Z,2.00
2019-05-15T09:26:09.278Z,1.50
2019-05-15T09:28:39.303Z,1.70
2019-05-15T09:31:08.635Z,1.50
2019-05-15T09:33:38.635Z,1.40
2019-05-15T09:36:08.994Z,1.50
2019-05-15T09:38:39.138Z,1.30
2019-05-15T09:41:09.654Z,1.50
2019-05-15T09:43:42.154Z,1.60
2019-05-15T09:46:11.529Z,1.50
2019-05-15T09:48:41.668Z,1.80
2019-05-15T09:51:10.684Z,1.40
2019-05-15T09:53:39.733Z,1.60
2019-05-15T09:56:08.819Z,1.80
2019-05-15T09:58:38.258Z,1.73
2019-05-15T10:01:08.380Z,1.60
2019-05-15T10:03:39.488Z,1.50
2019-05-15T10:06:08.859Z,1.30
2019-05-15T10:08:39.748Z,1.73
2019-05-15T10:11:09.238Z,1.60
2019-05-15T10:13:38.647Z,1.47
2019-05-15T10:16:08.419Z,1.30
2019-05-15T10:18:38.906Z,1.47
2019-05-15T10:21:09.153Z,1.40
2019-05-15T10:23:40.385Z,1.47
2019-05-15T10:26:13.842Z,1.50
2019-05-15T10:28:41.373Z,1.70
2019-05-15T10:31:10.617Z,1.30
2019-05-15T10:33:39.608Z,1.30
2019-05-15T10:36:08.720Z,1.20
2019-05-15T10:38:41.041Z,1.27
2019-05-15T10:41:14.984Z,1.27
2019-05-15T10:43:46.515Z,1.10
2019-05-15T10:46:13.888Z,1.30
2019-05-15T10:48:44.603Z,1.20
2019-05-15T10:51:13.688Z,1.10
2019-05-15T10:53:42.778Z,1.00
2019-05-15T10:56:11.907Z,0.90
2019-05-15T10:58:41.003Z,0.83
2019-05-15T11:01:11.263Z,1.00
2019-05-15T11:03:40.572Z,1.10
2019-05-15T11:06:09.616Z,1.00
2019-05-15T11:08:40.657Z,0.90
2019-05-15T11:11:09.450Z,1.00
2019-05-15T11:13:38.508Z,1.30
2019-05-15T11:16:09.651Z,1.00
2019-05-15T11:18:39.333Z,1.00
2019-05-15T11:21:08.619Z,1.00
2019-05-15T11:23:39.473Z,1.30
2019-05-15T11:26:08.884Z,1.17
2019-05-15T11:28:39.416Z,0.90
2019-05-15T11:31:10.441Z,0.97
2019-05-15T11:33:39.752Z,0.80
2019-05-15T11:36:08.773Z,1.00
2019-05-15T11:38:38.936Z,1.30
2019-05-15T11:41:08.742Z,1.17
2019-05-15T11:43:38.764Z,1.00
2019-05-15T11:46:09.864Z,1.30
2019-05-15T11:48:39.317Z,1.10
2019-05-15T11:51:09.450Z,1.40
2019-05-15T11:53:39.771Z,1.20
2019-05-15T11:56:09.656Z,1.20
2019-05-15T11:58:39.839Z,1.30
2019-05-15T12:01:08.966Z,1.53
2019-05-15T12:03:38.736Z,1.40
2019-05-15T12:06:18.591Z,1.27
2019-05-15T12:08:42.735Z,1.70
2019-05-15T12:11:26.973Z,1.60
2019-05-15T12:13:42.464Z,1.90
2019-05-15T12:16:11.492Z,1.30
2019-05-15T12:18:41.807Z,1.30
2019-05-15T12:21:10.875Z,1.30
2019-05-15T12:23:39.937Z,1.47
2019-05-15T12:26:09.324Z,1.20
2019-05-15T12:28:40.679Z,1.20
2019-05-15T12:31:09.173Z,1.23
2019-05-15T12:33:38.586Z,1.60
2019-05-15T12:36:10.599Z,1.90
2019-05-15T12:38:39.709Z,1.93
2019-05-15T13:01:18.257Z,1.80
2019-05-15T13:03:45.750Z,1.80
2019-05-15T13:06:14.742Z,1.77
2019-05-15T13:08:43.746Z,1.60
2019-05-15T13:11:15.177Z,1.60
2019-05-15T13:13:43.518Z,1.43
2019-05-15T13:16:12.619Z,1.77
2019-05-15T13:18:41.710Z,1.67
2019-05-15T13:21:10.767Z,1.50
2019-05-15T13:23:39.782Z,1.40
2019-05-15T13:26:22.947Z,1.70
2019-05-15T13:28:39.547Z,1.80
2019-05-15T13:31:09.176Z,1.80
2019-05-15T13:33:38.727Z,1.80
2019-05-15T13:36:08.983Z,1.70
2019-05-15T13:38:38.316Z,1.60
2019-05-15T13:41:09.418Z,1.70
2019-05-15T13:43:38.709Z,1.60
2019-05-15T13:46:09.011Z,1.60
2019-05-15T13:48:38.727Z,1.60
2019-05-15T13:51:07.850Z,2.00
2019-05-15T13:53:38.508Z,2.00
2019-05-15T13:56:07.868Z,2.07
2019-05-15T13:58:38.844Z,2.20
2019-05-15T14:01:10.532Z,2.47
2019-05-15T14:03:39.588Z,2.30
2019-05-15T14:06:09.414Z,2.07
2019-05-15T14:08:38.992Z,2.03
2019-05-15T14:11:08.717Z,2.17
2019-05-15T14:13:39.151Z,2.10
2019-05-15T14:16:09.613Z,2.00
2019-05-15T14:18:39.171Z,2.20
2019-05-15T14:21:09.891Z,2.20
2019-05-15T14:23:38.926Z,2.30
2019-05-15T14:26:17.904Z,2.03
2019-05-15T14:28:39.012Z,2.50
2019-05-15T14:31:15.443Z,2.03
2019-05-15T14:33:44.456Z,2.03
2019-05-15T14:36:13.482Z,2.60
2019-05-15T14:38:42.562Z,1.90
2019-05-15T14:41:12.932Z,2.10
2019-05-15T14:43:42.315Z,1.90
2019-05-15T14:46:11.322Z,2.33
2019-05-15T14:48:40.413Z,2.03
2019-05-15T14:51:09.537Z,2.17
2019-05-15T14:53:38.797Z,2.00
2019-05-15T14:56:08.467Z,2.17
2019-05-15T14:58:38.748Z,2.30
2019-05-15T15:01:12.179Z,2.03
2019-05-15T15:03:38.593Z,2.57
2019-05-15T15:06:08.619Z,1.87
2019-05-15T15:08:37.896Z,2.40
2019-05-15T15:11:08.692Z,2.30
2019-05-15T15:13:38.153Z,2.00
2019-05-15T15:16:08.450Z,2.50
2019-05-15T15:18:39.207Z,2.13
2019-05-15T15:21:08.750Z,2.37
2019-05-15T15:23:38.767Z,2.77
2019-05-15T15:26:08.376Z,2.10
2019-05-15T15:28:39.983Z,2.67
2019-05-15T15:31:21.723Z,1.90
2019-05-15T15:34:01.346Z,2.07
2019-05-15T15:36:30.569Z,2.00
2019-05-15T15:38:59.654Z,2.47
2019-05-15T15:41:28.896Z,1.83
2019-05-15T15:43:58.635Z,2.13
2019-05-15T15:46:28.685Z,2.67
2019-05-15T15:48:59.310Z,2.70
2019-05-15T15:51:28.697Z,2.07
2019-05-15T15:54:00.120Z,2.10
2019-05-15T15:56:30.837Z,2.17
2019-05-15T15:58:59.867Z,2.20
2019-05-15T16:01:31.377Z,2.70
2019-05-15T16:03:59.911Z,2.93
2019-05-15T16:06:29.494Z,2.17
2019-05-15T16:08:59.548Z,2.53
2019-05-15T16:11:28.671Z,2.50
2019-05-15T16:13:58.573Z,2.43
2019-05-15T16:16:28.486Z,2.10
2019-05-15T16:18:57.926Z,2.37
2019-05-15T16:21:28.703Z,2.53
2019-05-15T16:23:58.325Z,2.73
2019-05-15T16:26:29.038Z,2.33
2019-05-15T16:29:01.618Z,2.50
2019-05-15T16:31:29.055Z,2.20
2019-05-15T16:33:58.636Z,2.33
2019-05-15T16:36:27.704Z,2.40
2019-05-15T16:39:05.166Z,2.13
2019-05-15T16:41:35.148Z,2.10
2019-05-15T16:44:04.207Z,2.63
2019-05-15T16:46:33.284Z,2.50
2019-05-15T16:49:04.032Z,2.73
2019-05-15T16:51:33.065Z,2.83
2019-05-15T16:54:02.066Z,2.73
2019-05-15T16:56:31.138Z,2.50
2019-05-15T16:59:00.194Z,2.70
2019-05-15T17:01:29.271Z,3.23
2019-05-15T17:03:58.733Z,3.20
2019-05-15T17:06:28.254Z,2.60
2019-05-15T17:08:57.918Z,2.50
2019-05-15T17:11:28.885Z,2.30
2019-05-15T17:14:00.080Z,2.90
2019-05-15T17:16:31.689Z,2.90
2019-05-15T17:19:03.259Z,3.00
2019-05-15T17:21:32.368Z,3.53
2019-05-15T17:24:01.407Z,2.77
2019-05-15T17:26:30.495Z,3.90
2019-05-15T17:28:59.589Z,3.07
2019-05-15T17:31:28.776Z,2.40
2019-05-15T17:33:58.383Z,2.33
2019-05-15T17:36:31.494Z,2.60
2019-05-15T17:38:58.209Z,3.20
2019-05-15T17:41:28.623Z,2.90
2019-05-15T17:43:58.075Z,2.57
2019-05-15T17:46:29.707Z,2.90
2019-05-15T17:49:06.939Z,2.87
2019-05-15T17:51:28.713Z,2.43
2019-05-15T17:53:58.254Z,2.80
2019-05-15T17:56:28.380Z,2.87
2019-05-15T17:58:58.178Z,3.20
2019-05-15T18:01:28.306Z,3.40
2019-05-15T18:03:59.389Z,3.43
2019-05-15T18:06:28.929Z,2.87
2019-05-15T18:08:59.421Z,2.30
2019-05-15T18:11:28.633Z,2.53
2019-05-15T18:13:58.262Z,2.67
2019-05-15T18:16:27.505Z,2.87
2019-05-15T18:18:58.472Z,2.80
2019-05-15T18:21:28.907Z,2.67
2019-05-15T18:23:58.694Z,2.80
2019-05-15T18:26:27.986Z,3.37
2019-05-15T18:28:59.014Z,3.13
2019-05-15T18:31:28.639Z,3.53
2019-05-15T18:33:58.926Z,3.10
2019-05-15T18:36:28.552Z,3.33
2019-05-15T18:38:58.892Z,3.07
2019-05-15T18:41:28.523Z,2.50
2019-05-15T18:43:57.996Z,2.37
2019-05-15T18:46:28.878Z,2.60
2019-05-15T18:48:58.093Z,2.70
2019-05-15T18:51:28.034Z,2.27
2019-05-15T18:53:58.831Z,2.23
2019-05-15T18:56:29.723Z,2.57
2019-05-15T18:58:58.967Z,2.80
2019-05-15T19:01:28.441Z,2.17
2019-05-15T19:03:58.241Z,2.13
2019-05-15T19:06:29.188Z,2.23
2019-05-15T19:08:58.392Z,1.87
2019-05-15T19:11:28.843Z,1.60
2019-05-15T19:13:58.960Z,1.97
2019-05-15T19:16:31.218Z,2.13
2019-05-15T19:19:00.129Z,1.47
2019-05-15T19:21:29.380Z,1.70
2019-05-15T19:23:58.507Z,2.00
2019-05-15T19:26:28.963Z,1.60
2019-05-15T19:28:59.127Z,1.60
2019-05-15T19:31:30.687Z,1.57
2019-05-15T19:33:59.165Z,2.30
2019-05-15T19:36:28.525Z,1.60
2019-05-15T19:38:57.578Z,1.80
2019-05-15T19:41:28.725Z,2.00
2019-05-15T19:43:58.111Z,1.43
2019-05-15T19:46:28.313Z,1.53
2019-05-15T19:48:58.156Z,1.70
2019-05-15T19:51:28.998Z,1.57
2019-05-15T19:53:58.845Z,1.77
2019-05-15T19:56:28.058Z,1.80
2019-05-15T19:58:58.183Z,2.00
2019-05-15T20:01:28.235Z,1.60
2019-05-15T20:03:58.610Z,1.70
2019-05-15T20:06:28.135Z,1.80
2019-05-15T20:08:58.807Z,1.87
2019-05-15T20:11:31.771Z,2.43
2019-05-15T20:14:03.369Z,1.70
2019-05-15T20:16:35.359Z,2.23
2019-05-15T20:19:08.718Z,2.03
2019-05-15T20:21:40.593Z,1.97
2019-05-15T20:24:13.301Z,2.27
2019-05-15T20:26:48.605Z,2.13
2019-05-15T20:29:20.476Z,2.03
2019-05-15T20:31:55.279Z,2.30
2019-05-15T20:34:25.248Z,2.03
2019-05-15T20:36:58.707Z,2.00
2019-05-15T20:39:30.396Z,2.17
2019-05-15T20:42:02.465Z,2.03
2019-05-15T20:44:34.530Z,1.90
2019-05-15T20:47:08.100Z,2.10
2019-05-15T20:49:42.866Z,2.43
2019-05-15T20:52:14.759Z,2.23
2019-05-15T20:54:48.053Z,2.10
2019-05-15T20:57:19.158Z,2.43
2019-05-15T20:59:50.880Z,2.50
2019-05-15T21:02:22.139Z,2.27
2019-05-15T21:04:53.830Z,2.30
2019-05-15T21:07:35.832Z,2.97
2019-05-15T21:09:58.783Z,2.67
2019-05-15T21:12:29.965Z,2.40
2019-05-15T21:15:01.587Z,2.67
2019-05-15T21:17:33.006Z,2.30
2019-05-15T21:20:05.151Z,2.30
2019-05-15T21:22:39.879Z,2.40
2019-05-15T21:25:10.838Z,2.53
2019-05-15T21:27:43.819Z,2.70
2019-05-15T21:30:18.662Z,3.00
2019-05-15T21:32:49.729Z,2.67
2019-05-15T21:35:22.737Z,2.93
2019-05-15T21:37:55.114Z,2.90
2019-05-15T21:40:27.945Z,2.70
2019-05-15T21:43:00.188Z,2.90
2019-05-15T21:45:32.043Z,2.70
2019-05-15T21:48:04.616Z,2.70
2019-05-15T21:50:38.788Z,2.80
2019-05-15T21:53:11.601Z,2.77
2019-05-15T21:55:44.354Z,3.10
2019-05-15T21:58:18.637Z,2.60
2019-05-15T22:00:53.562Z,2.77
2019-05-15T22:03:28.529Z,2.50
2019-05-15T22:06:00.495Z,2.80
2019-05-15T22:08:32.613Z,2.60
2019-05-15T22:11:04.217Z,2.90
2019-05-15T22:13:35.739Z,2.73
2019-05-15T22:16:08.121Z,2.47
2019-05-15T22:18:39.902Z,2.60
2019-05-15T22:21:12.964Z,2.53
2019-05-15T22:23:44.928Z,3.10
2019-05-15T22:26:18.635Z,3.30
2019-05-15T22:28:49.916Z,2.73
2019-05-15T22:31:22.154Z,2.37
2019-05-15T22:33:54.413Z,3.23
2019-05-15T22:36:28.065Z,3.00
2019-05-15T22:38:59.501Z,3.20
2019-05-15T22:41:50.496Z,2.77
2019-05-15T22:44:21.902Z,3.07
2019-05-15T22:46:53.514Z,3.10
2019-05-15T22:49:25.170Z,2.93
2019-05-15T22:51:58.117Z,3.10
2019-05-15T22:54:30.089Z,3.50
2019-05-15T22:57:02.988Z,3.50
2019-05-15T22:59:34.407Z,3.37
2019-05-15T23:02:06.066Z,3.00
2019-05-15T23:04:37.949Z,3.57
2019-05-15T23:07:09.982Z,3.63
2019-05-15T23:09:41.057Z,3.17
2019-05-15T23:12:11.786Z,3.10
2019-05-15T23:14:43.526Z,3.20
2019-05-15T23:17:16.317Z,3.87
2019-05-15T23:19:48.594Z,3.50
2019-05-15T23:22:20.103Z,3.70
2019-05-15T23:24:51.902Z,3.23
2019-05-15T23:27:25.097Z,3.53
2019-05-15T23:29:54.203Z,3.77
2019-05-15T23:32:23.225Z,3.33
2019-05-15T23:34:52.256Z,3.37
2019-05-15T23:37:22.683Z,3.97
2019-05-15T23:39:51.709Z,3.77
2019-05-15T23:42:20.798Z,4.10
2019-05-15T23:44:49.845Z,4.57
2019-05-15T23:47:18.881Z,3.73
2019-05-15T23:49:48.482Z,3.23
2019-05-15T23:52:17.744Z,3.27
2019-05-15T23:55:08.278Z,3.60
2019-05-15T23:57:38.968Z,3.20
